createdAt,value
2022-11-07T00:02:03.432Z,84.30
2022-11-07T00:05:12.353Z,84.42
2022-11-07T00:08:17.992Z,83.63
2022-11-07T00:11:23.708Z,83.24
2022-11-07T00:14:29.453Z,84.01
2022-11-07T00:17:36.042Z,83.66
2022-11-07T00:20:44.292Z,82.64
2022-11-07T00:23:50.084Z,83.43
2022-11-07T00:26:55.795Z,84.25
2022-11-07T00:30:01.556Z,83.81
2022-11-07T00:33:07.387Z,83.08
2022-11-07T00:36:22.737Z,82.88
2022-11-07T00:39:28.385Z,82.82
2022-11-07T00:42:33.964Z,82.42
2022-11-07T00:45:39.653Z,81.99
2022-11-07T00:48:45.399Z,82.12
2022-11-07T00:51:53.629Z,82.27
2022-11-07T00:54:59.218Z,82.21
2022-11-07T00:58:07.529Z,82.15
2022-11-07T01:01:20.204Z,82.60
2022-11-07T01:04:38.283Z,82.24
2022-11-07T01:07:46.466Z,82.09
2022-11-07T01:10:52.004Z,82.63
2022-11-07T01:13:59.719Z,82.40
2022-11-07T01:17:05.421Z,82.81
2022-11-07T01:20:13.357Z,82.93
2022-11-07T01:23:22.935Z,83.16
2022-11-07T01:26:28.531Z,83.16
2022-11-07T01:29:34.232Z,83.41
2022-11-07T01:32:39.847Z,83.06
2022-11-07T01:35:45.683Z,83.02
2022-11-07T01:38:53.918Z,82.94
2022-11-07T01:42:00.283Z,83.59
2022-11-07T01:45:06.288Z,83.59
2022-11-07T01:48:12.278Z,82.71
2022-11-07T01:51:22.141Z,82.04
2022-11-07T01:54:38.412Z,82.04
2022-11-07T01:57:51.001Z,81.04
2022-11-07T02:00:56.622Z,80.70
2022-11-07T02:04:05.460Z,80.45
2022-11-07T02:07:21.603Z,79.60
2022-11-07T02:10:31.125Z,79.30
2022-11-07T02:13:40.179Z,79.13
2022-11-07T02:16:47.453Z,80.47
2022-11-07T02:19:56.938Z,81.09
2022-11-07T02:23:11.851Z,80.34
2022-11-07T02:26:22.306Z,80.56
2022-11-07T02:29:30.541Z,80.97
2022-11-07T02:32:36.445Z,80.92
2022-11-07T02:35:45.710Z,80.79
2022-11-07T02:38:57.636Z,81.52
2022-11-07T02:42:07.875Z,80.96
2022-11-07T02:45:19.125Z,80.88
2022-11-07T02:48:24.738Z,80.85
2022-11-07T02:51:30.766Z,80.11
2022-11-07T02:54:37.420Z,79.99
2022-11-07T02:57:46.350Z,79.00
2022-11-07T03:00:51.975Z,78.96
2022-11-07T03:03:57.750Z,80.40
2022-11-07T03:07:03.336Z,80.19
2022-11-07T03:10:10.525Z,79.82
2022-11-07T03:13:18.665Z,80.40
2022-11-07T03:16:24.925Z,80.03
2022-11-07T03:19:30.599Z,80.52
2022-11-07T03:22:36.188Z,79.29
2022-11-07T03:25:42.283Z,79.24
2022-11-07T03:28:50.540Z,79.24
2022-11-07T03:31:56.089Z,79.08
2022-11-07T03:35:01.668Z,79.21
2022-11-07T03:38:07.366Z,78.08
2022-11-07T03:41:17.248Z,79.33
2022-11-07T03:44:25.455Z,80.49
2022-11-07T03:47:31.017Z,80.34
2022-11-07T03:50:36.645Z,79.95
2022-11-07T03:53:42.224Z,80.04
2022-11-07T03:56:47.803Z,80.65
2022-11-07T03:59:56.128Z,79.39
2022-11-07T04:03:04.624Z,79.99
2022-11-07T04:06:11.117Z,80.58
2022-11-07T04:09:16.847Z,80.90
2022-11-07T04:12:34.867Z,81.62
2022-11-07T04:15:59.749Z,82.20
2022-11-07T04:19:26.639Z,82.51
2022-11-07T04:22:52.191Z,82.28
2022-11-07T04:26:30.692Z,84.48
2022-11-07T04:29:56.248Z,83.52
2022-11-07T04:33:24.379Z,83.66
2022-11-07T04:36:49.953Z,83.00
2022-11-07T04:40:16.095Z,82.32
2022-11-07T04:43:41.707Z,82.30
2022-11-07T04:47:07.440Z,82.57
2022-11-07T04:50:36.190Z,82.87
2022-11-07T04:54:01.760Z,83.44
2022-11-07T04:57:27.300Z,84.04
2022-11-07T05:00:52.891Z,83.85
2022-11-07T05:04:18.493Z,83.73
2022-11-07T05:07:47.743Z,83.62
2022-11-07T05:11:13.284Z,82.65
2022-11-07T05:14:38.910Z,81.47
2022-11-07T05:18:04.420Z,80.43
2022-11-07T05:21:29.958Z,79.76
2022-11-07T05:24:58.306Z,78.99
2022-11-07T05:28:34.029Z,79.10
2022-11-07T05:32:03.800Z,80.49
2022-11-07T05:35:29.341Z,80.20
2022-11-07T05:38:56.678Z,79.29
2022-11-07T05:42:24.865Z,79.66
2022-11-07T05:45:50.401Z,79.91
2022-11-07T05:49:15.924Z,79.97
2022-11-07T05:52:41.499Z,79.52
2022-11-07T05:56:07.628Z,79.10
2022-11-07T05:59:35.820Z,79.46
2022-11-07T06:03:03.251Z,79.28
2022-11-07T06:06:28.769Z,79.20
2022-11-07T06:09:54.379Z,79.29
2022-11-07T06:13:20.412Z,78.24
2022-11-07T06:16:51.874Z,77.78
2022-11-07T06:20:19.678Z,77.87
2022-11-07T06:23:45.254Z,77.95
2022-11-07T06:27:10.809Z,77.07
2022-11-07T06:30:43.245Z,76.60
2022-11-07T06:34:11.688Z,75.99
2022-11-07T06:37:37.246Z,75.62
2022-11-07T06:41:09.816Z,75.17
2022-11-07T06:44:35.431Z,74.98
2022-11-07T06:48:00.966Z,74.78
2022-11-07T06:51:29.123Z,74.63
2022-11-07T06:54:54.686Z,73.79
2022-11-07T06:58:20.674Z,73.30
2022-11-07T07:01:46.354Z,73.89
2022-11-07T07:05:17.109Z,72.99
2022-11-07T07:08:49.750Z,71.95
2022-11-07T07:12:15.384Z,71.56
2022-11-07T07:15:51.290Z,71.01
2022-11-07T07:19:17.186Z,69.97
2022-11-07T07:22:44.970Z,69.81
2022-11-07T07:26:18.485Z,68.57
2022-11-07T07:29:44.047Z,67.80
2022-11-07T07:33:09.695Z,66.78
2022-11-07T07:36:35.736Z,65.98
2022-11-07T07:40:01.277Z,65.39
2022-11-07T07:43:30.803Z,64.99
2022-11-07T07:46:59.184Z,64.95
2022-11-07T07:50:24.907Z,64.30
2022-11-07T07:53:50.451Z,64.17
2022-11-07T07:57:15.968Z,63.79
2022-11-07T08:00:58.057Z,63.81
2022-11-07T08:04:24.311Z,63.23
2022-11-07T08:07:51.683Z,63.38
2022-11-07T08:11:17.224Z,63.74
2022-11-07T08:14:41.081Z,63.99
2022-11-07T08:17:49.996Z,64.55
2022-11-07T08:20:58.900Z,64.94
2022-11-07T08:24:04.645Z,65.11
2022-11-07T08:27:10.230Z,64.90
2022-11-07T08:30:18.221Z,64.29
2022-11-07T08:33:27.281Z,64.36
2022-11-07T08:36:33.421Z,64.29
2022-11-07T08:39:47.049Z,64.03
2022-11-07T08:42:52.934Z,63.72
2022-11-07T08:45:59.958Z,63.76
2022-11-07T08:49:11.741Z,63.53
2022-11-07T08:52:17.341Z,64.07
2022-11-07T08:55:22.997Z,63.77
2022-11-07T08:58:30.138Z,63.67
2022-11-07T09:01:56.064Z,64.23
2022-11-07T09:05:04.343Z,64.31
2022-11-07T09:08:10.227Z,63.55
2022-11-07T09:11:19.186Z,63.39
2022-11-07T09:14:25.288Z,63.07
2022-11-07T09:17:31.307Z,62.55
2022-11-07T09:20:40.515Z,62.69
2022-11-07T09:23:46.265Z,62.36
2022-11-07T09:26:51.835Z,62.34
2022-11-07T09:29:57.500Z,62.13
2022-11-07T09:33:05.420Z,62.01
2022-11-07T09:36:14.784Z,61.47
2022-11-07T09:39:21.402Z,60.60
2022-11-07T09:42:47.366Z,60.01
2022-11-07T09:46:13.859Z,60.11
2022-11-07T09:49:27.669Z,59.81
2022-11-07T09:52:49.039Z,60.24
2022-11-07T09:56:01.849Z,59.68
2022-11-07T09:59:18.156Z,60.00
2022-11-07T10:02:30.377Z,59.80
2022-11-07T10:05:51.235Z,58.65
2022-11-07T10:09:18.567Z,57.76
2022-11-07T10:12:50.594Z,56.95
2022-11-07T10:16:18.903Z,55.87
2022-11-07T10:19:49.431Z,56.15
2022-11-07T10:23:24.757Z,56.14
2022-11-07T10:26:35.468Z,55.55
2022-11-07T10:29:54.710Z,54.79
2022-11-07T10:33:17.619Z,53.87
2022-11-07T10:36:29.482Z,54.02
2022-11-07T10:39:35.726Z,52.56
2022-11-07T10:42:44.363Z,50.85
2022-11-07T10:45:50.576Z,50.32
2022-11-07T10:49:00.357Z,48.37
2022-11-07T10:52:14.817Z,48.44
2022-11-07T10:55:20.946Z,48.00
2022-11-07T10:58:33.254Z,48.01
2022-11-07T11:01:39.243Z,47.64
2022-11-07T11:04:54.174Z,45.46
2022-11-07T11:08:15.653Z,45.12
2022-11-07T11:11:37.610Z,46.14
2022-11-07T11:14:46.245Z,45.79
2022-11-07T11:18:05.729Z,45.23
2022-11-07T11:21:26.214Z,44.97
2022-11-07T11:24:40.498Z,45.77
2022-11-07T11:27:51.180Z,46.91
2022-11-07T11:31:09.301Z,48.00
2022-11-07T11:34:27.550Z,47.02
2022-11-07T11:37:46.101Z,46.57
2022-11-07T11:41:05.956Z,46.51
2022-11-07T11:44:23.744Z,46.90
2022-11-07T11:47:44.759Z,46.31
2022-11-07T11:51:04.880Z,46.38
2022-11-07T11:54:13.937Z,46.92
2022-11-07T11:57:30.045Z,45.94
2022-11-07T12:00:48.849Z,46.99
2022-11-07T12:04:41.312Z,46.22
2022-11-07T12:08:20.694Z,45.72
2022-11-07T12:11:52.593Z,46.91
2022-11-07T12:15:30.698Z,48.13
2022-11-07T12:18:52.677Z,48.40
2022-11-07T12:22:21.350Z,48.73
2022-11-07T12:25:35.979Z,48.36
2022-11-07T12:29:06.913Z,48.30
2022-11-07T12:32:26.239Z,47.81
2022-11-07T12:35:48.677Z,47.61
2022-11-07T12:39:25.658Z,47.87
2022-11-07T12:42:59.807Z,48.43
2022-11-07T12:46:21.345Z,48.73
2022-11-07T12:50:08.910Z,48.66
2022-11-07T12:53:40.715Z,48.40
2022-11-07T12:56:52.319Z,48.92
2022-11-07T13:00:05.454Z,48.60
2022-11-07T13:04:06.142Z,47.98
2022-11-07T13:07:27.704Z,48.81
2022-11-07T13:10:49.277Z,47.46
2022-11-07T13:14:27.383Z,48.35
2022-11-07T13:17:44.420Z,50.24
2022-11-07T13:20:50.675Z,52.72
2022-11-07T13:23:56.317Z,53.28
2022-11-07T13:27:04.896Z,55.44
2022-11-07T13:30:30.627Z,55.68
2022-11-07T13:33:38.863Z,55.84
2022-11-07T13:36:44.661Z,56.08
2022-11-07T13:39:57.915Z,56.03
2022-11-07T13:43:16.777Z,56.25
2022-11-07T13:46:33.700Z,56.30
2022-11-07T13:49:45.758Z,56.97
2022-11-07T13:53:02.354Z,57.47
2022-11-07T13:56:29.797Z,57.87
2022-11-07T13:59:51.021Z,57.35
2022-11-07T14:03:01.984Z,57.61
2022-11-07T14:06:09.959Z,57.85
2022-11-07T14:09:29.061Z,57.76
2022-11-07T14:12:40.699Z,57.94
2022-11-07T14:15:53.820Z,57.97
2022-11-07T14:19:07.113Z,58.02
2022-11-07T14:22:25.810Z,58.46
2022-11-07T14:25:35.785Z,58.94
2022-11-07T14:28:44.016Z,59.01
2022-11-07T14:31:49.584Z,59.12
2022-11-07T14:34:59.049Z,59.59
2022-11-07T14:38:14.767Z,60.42
2022-11-07T14:41:24.034Z,60.66
2022-11-07T14:44:56.352Z,61.07
2022-11-07T14:48:02.412Z,61.48
2022-11-07T14:51:15.122Z,61.35
2022-11-07T14:54:24.966Z,61.82
2022-11-07T14:57:31.085Z,61.32
2022-11-07T15:00:38.198Z,62.25
2022-11-07T15:03:58.061Z,62.71
2022-11-07T15:07:24.425Z,63.56
2022-11-07T15:10:36.892Z,63.43
2022-11-07T15:13:42.641Z,63.90
2022-11-07T15:16:54.002Z,64.23
2022-11-07T15:20:06.111Z,64.38
2022-11-07T15:23:34.694Z,65.08
2022-11-07T15:26:40.295Z,65.45
2022-11-07T15:29:55.655Z,65.48
2022-11-07T15:33:02.423Z,65.36
2022-11-07T15:36:09.483Z,65.59
2022-11-07T15:39:18.068Z,66.57
2022-11-07T15:42:23.913Z,66.68
2022-11-07T15:45:29.893Z,66.40
2022-11-07T15:48:41.255Z,66.64
2022-11-07T15:51:47.222Z,66.99
2022-11-07T15:54:55.493Z,67.63
2022-11-07T15:58:01.083Z,67.85
2022-11-07T16:01:07.180Z,67.98
2022-11-07T16:04:13.110Z,67.56
2022-11-07T16:07:22.901Z,68.19
2022-11-07T16:10:31.175Z,68.47
2022-11-07T16:13:36.727Z,68.37
2022-11-07T16:16:43.100Z,68.84
2022-11-07T16:19:49.370Z,68.79
2022-11-07T16:22:56.008Z,68.75
2022-11-07T16:26:04.732Z,69.08
2022-11-07T16:29:13.216Z,69.21
2022-11-07T16:32:19.286Z,69.68
2022-11-07T16:35:25.632Z,69.50
2022-11-07T16:38:36.721Z,69.77
2022-11-07T16:41:44.978Z,69.20
2022-11-07T16:44:50.669Z,69.68
2022-11-07T16:47:56.281Z,69.32
2022-11-07T16:51:03.395Z,69.61
2022-11-07T16:54:09.018Z,69.45
2022-11-07T16:57:21.631Z,69.14
2022-11-07T17:00:27.202Z,69.29
2022-11-07T17:03:32.881Z,69.24
2022-11-07T17:06:43.582Z,69.60
2022-11-07T17:09:49.478Z,69.74
2022-11-07T17:12:57.645Z,69.97
2022-11-07T17:16:03.450Z,70.40
2022-11-07T17:19:09.794Z,70.68
2022-11-07T17:22:17.929Z,70.67
2022-11-07T17:25:23.625Z,70.77
2022-11-07T17:28:31.840Z,70.94
2022-11-07T17:31:37.712Z,70.62
2022-11-07T17:34:43.364Z,70.88
2022-11-07T17:37:49.072Z,71.12
2022-11-07T17:40:54.605Z,70.95
2022-11-07T17:44:04.306Z,70.88
2022-11-07T17:47:22.473Z,70.79
2022-11-07T17:50:37.835Z,71.63
2022-11-07T17:53:43.705Z,71.74
2022-11-07T17:56:49.885Z,71.89
2022-11-07T17:59:58.119Z,72.52
2022-11-07T18:03:03.879Z,72.01
2022-11-07T18:06:10.386Z,72.05
2022-11-07T18:09:18.521Z,72.01
2022-11-07T18:12:24.076Z,72.03
2022-11-07T18:15:32.215Z,72.35
2022-11-07T18:18:41.050Z,72.66
2022-11-07T18:21:46.890Z,72.24
2022-11-07T18:24:52.526Z,72.71
2022-11-07T18:27:58.103Z,72.09
2022-11-07T18:31:13.790Z,72.22
2022-11-07T18:34:20.699Z,72.14
2022-11-07T18:37:45.855Z,71.90
2022-11-07T18:41:00.256Z,71.55
2022-11-07T18:44:10.438Z,71.75
2022-11-07T18:47:22.607Z,72.18
2022-11-07T18:50:28.529Z,72.07
2022-11-07T18:53:34.552Z,71.99
2022-11-07T18:56:40.325Z,71.64
2022-11-07T18:59:45.936Z,71.56
2022-11-07T19:02:54.589Z,71.67
2022-11-07T19:06:01.014Z,71.79
2022-11-07T19:09:19.344Z,71.75
2022-11-07T19:12:24.911Z,71.69
2022-11-07T19:15:35.089Z,71.85
2022-11-07T19:18:49.481Z,72.11
2022-11-07T19:22:01.569Z,71.92
2022-11-07T19:25:07.998Z,71.80
2022-11-07T19:28:15.591Z,71.37
2022-11-07T19:31:21.609Z,70.82
2022-11-07T19:34:33.455Z,71.00
2022-11-07T19:37:39.564Z,70.75
2022-11-07T19:40:51.972Z,71.06
2022-11-07T19:43:59.373Z,70.93
2022-11-07T19:47:05.193Z,70.49
2022-11-07T19:50:13.925Z,70.43
2022-11-07T19:52:52.657Z,70.11
2022-11-07T19:55:02.630Z,70.50
2022-11-07T19:57:08.825Z,70.88
2022-11-07T19:59:14.718Z,70.56
2022-11-07T20:01:25.113Z,71.00
2022-11-07T20:03:40.140Z,70.86
2022-11-07T20:06:11.075Z,71.34
2022-11-07T20:08:20.439Z,71.37
2022-11-07T20:10:38.933Z,71.31
2022-11-07T20:12:47.165Z,71.79
2022-11-07T20:14:54.183Z,71.47
2022-11-07T20:17:00.104Z,71.58
2022-11-07T20:19:26.041Z,71.48
2022-11-07T20:21:49.238Z,71.14
2022-11-07T20:24:16.251Z,70.76
2022-11-07T20:26:26.338Z,71.02
2022-11-07T20:28:33.082Z,71.04
2022-11-07T20:30:47.218Z,70.55
2022-11-07T20:32:56.040Z,70.78
2022-11-07T20:35:03.303Z,70.28
2022-11-07T20:37:09.192Z,70.80
2022-11-07T20:39:18.101Z,70.84
2022-11-07T20:41:41.608Z,71.03
2022-11-07T20:43:48.571Z,70.74
2022-11-07T20:45:57.062Z,70.74
2022-11-07T20:48:06.282Z,70.87
2022-11-07T20:50:12.898Z,70.71
2022-11-07T20:52:19.215Z,70.26
2022-11-07T20:54:29.609Z,70.96
2022-11-07T20:56:35.741Z,71.04
2022-11-07T20:58:45.077Z,71.02
2022-11-07T21:00:55.239Z,71.12
2022-11-07T21:03:05.529Z,70.79
2022-11-07T21:05:20.288Z,70.93
2022-11-07T21:07:28.738Z,70.77
2022-11-07T21:09:41.622Z,70.78
2022-11-07T21:11:50.755Z,70.55
2022-11-07T21:13:59.777Z,70.60
2022-11-07T21:16:11.772Z,70.83
2022-11-07T21:18:18.922Z,70.67
2022-11-07T21:20:26.954Z,70.44
2022-11-07T21:22:37.403Z,70.39
2022-11-07T21:24:47.145Z,70.51
2022-11-07T21:26:56.749Z,70.64
2022-11-07T21:29:06.736Z,70.41
2022-11-07T21:31:16.495Z,70.18
2022-11-07T21:33:27.369Z,70.62
2022-11-07T21:35:44.832Z,70.67
2022-11-07T21:37:53.548Z,70.98
2022-11-07T21:40:10.208Z,70.65
2022-11-07T21:42:26.091Z,70.93
2022-11-07T21:44:37.020Z,70.95
2022-11-07T21:46:45.499Z,70.92
2022-11-07T21:48:52.761Z,70.85
2022-11-07T21:51:10.846Z,71.19
2022-11-07T21:53:18.515Z,70.88
2022-11-07T21:55:27.976Z,71.66
2022-11-07T21:57:34.447Z,71.18
2022-11-07T21:59:42.856Z,71.10
2022-11-07T22:01:50.262Z,71.01
2022-11-07T22:04:06.858Z,71.02
2022-11-07T22:06:19.819Z,71.10
2022-11-07T22:08:26.741Z,71.18
2022-11-07T22:10:36.452Z,70.66
2022-11-07T22:12:43.807Z,70.32
2022-11-07T22:14:51.106Z,70.15
2022-11-07T22:16:59.825Z,70.14
2022-11-07T22:19:15.249Z,70.22
2022-11-07T22:21:24.793Z,70.31
2022-11-07T22:23:35.407Z,70.42
2022-11-07T22:25:45.505Z,70.08
2022-11-07T22:27:52.899Z,70.14
2022-11-07T22:29:59.571Z,70.23
2022-11-07T22:32:07.362Z,70.13
2022-11-07T22:34:13.958Z,69.75
2022-11-07T22:36:25.824Z,69.29
2022-11-07T22:38:36.692Z,69.62
2022-11-07T22:40:50.719Z,69.30
2022-11-07T22:42:57.355Z,69.55
2022-11-07T22:45:05.164Z,69.38
2022-11-07T22:47:11.723Z,69.53
2022-11-07T22:49:18.298Z,69.39
2022-11-07T22:51:28.809Z,69.83
2022-11-07T22:53:36.279Z,69.84
2022-11-07T22:55:43.937Z,69.93
2022-11-07T22:57:54.951Z,69.80
2022-11-07T23:00:19.734Z,70.27
2022-11-07T23:02:27.502Z,70.13
2022-11-07T23:04:35.093Z,70.23
2022-11-07T23:06:46.073Z,70.57
2022-11-07T23:08:54.729Z,70.56
2022-11-07T23:13:40.176Z,70.60
2022-11-07T23:15:46.797Z,71.09
2022-11-07T23:17:54.390Z,71.20
2022-11-07T23:20:01.984Z,71.45
2022-11-07T23:22:10.288Z,71.30
2022-11-07T23:24:21.008Z,71.56
2022-11-07T23:26:34.259Z,71.91
2022-11-07T23:28:45.354Z,72.20
2022-11-07T23:30:55.406Z,71.78
2022-11-07T23:33:02.018Z,71.97
2022-11-07T23:35:10.124Z,72.38
2022-11-07T23:37:18.900Z,71.97
2022-11-07T23:39:26.957Z,72.26
2022-11-07T23:41:33.469Z,72.57
2022-11-07T23:43:48.532Z,72.45
2022-11-07T23:46:11.860Z,72.66
2022-11-07T23:48:31.193Z,72.93
2022-11-07T23:50:50.666Z,72.96
2022-11-07T23:52:57.552Z,72.85
2022-11-07T23:55:16.217Z,72.45
2022-11-07T23:57:23.806Z,72.45
2022-11-07T23:59:45.170Z,72.89
